Time;durP1;ratioP1;P1;durP2;ratioP2;P2;SDS_P1;SDS_P2;PMS_P1;PMS_P2;Temp;Humidity;BMP_temperature;BMP_pressure;BME280_temperature;BME280_humidity;BME280_pressure;Samples;Min_cycle;Max_cycle;Signal;HPM_P1;HPM_P2
2021/07/26 00:01:38;;;;;;;6.57;3.10;;;;;;;;;;10396699;28;20075;-61
2021/07/26 00:06:36;;;;;;;4.50;2.50;;;;;;;;;;10401472;28;20052;-60
2021/07/26 00:11:35;;;;;;;5.03;2.40;;;;;;;;;;10404285;28;20047;-60
2021/07/26 00:16:33;;;;;;;4.88;2.60;;;;;;;;;;10404485;28;20044;-61
2021/07/26 00:21:33;;;;;;;7.90;2.95;;;;;;;;;;10403757;28;20087;-60
2021/07/26 00:26:31;;;;;;;6.15;3.30;;;;;;;;;;10404146;28;20082;-60
2021/07/26 00:31:30;;;;;;;3.08;1.95;;;;;;;;;;10402751;28;20087;-60
2021/07/26 00:36:28;;;;;;;5.75;2.58;;;;;;;;;;10403073;28;20043;-60
2021/07/26 00:41:27;;;;;;;4.75;2.65;;;;;;;;;;10403418;28;20090;-60
2021/07/26 00:46:26;;;;;;;8.32;2.67;;;;;;;;;;10402396;28;20055;-60
2021/07/26 00:51:24;;;;;;;5.43;2.92;;;;;;;;;;10403030;28;20047;-60
2021/07/26 00:56:23;;;;;;;8.05;2.30;;;;;;;;;;10402878;28;20040;-60
2021/07/26 01:01:22;;;;;;;5.22;2.53;;;;;;;;;;10402403;28;20067;-60
2021/07/26 01:06:21;;;;;;;7.20;2.97;;;;;;;;;;10401421;28;20074;-60
2021/07/26 01:11:19;;;;;;;4.30;2.65;;;;;;;;;;10401235;28;20464;-60
2021/07/26 01:16:18;;;;;;;3.90;2.70;;;;;;;;;;10401871;28;20031;-60
2021/07/26 01:21:18;;;;;;;7.07;2.95;;;;;;;;;;10383215;28;20044;-60
2021/07/26 01:26:19;;;;;;;5.38;3.42;;;;;;;;;;10401923;28;20440;-60
2021/07/26 01:31:18;;;;;;;3.33;2.70;;;;;;;;;;10401367;28;20039;-60
2021/07/26 01:36:18;;;;;;;3.65;2.60;;;;;;;;;;10401093;28;20050;-59
2021/07/26 01:41:20;;;;;;;5.00;3.20;;;;;;;;;;10400740;28;20082;-59
2021/07/26 01:46:24;;;;;;;5.30;2.80;;;;;;;;;;10400315;28;20051;-59
2021/07/26 01:51:25;;;;;;;6.05;2.58;;;;;;;;;;10400516;28;20043;-59
2021/07/26 01:56:23;;;;;;;5.63;2.55;;;;;;;;;;10400361;28;20050;-60
2021/07/26 02:01:21;;;;;;;3.40;2.80;;;;;;;;;;10400062;28;20075;-59
2021/07/26 02:06:20;;;;;;;6.55;2.83;;;;;;;;;;10399045;28;20393;-59
2021/07/26 02:11:21;;;;;;;3.88;2.88;;;;;;;;;;10398964;28;20042;-60
2021/07/26 02:16:20;;;;;;;3.58;2.58;;;;;;;;;;10399736;28;20499;-60
2021/07/26 02:21:18;;;;;;;4.75;2.45;;;;;;;;;;10398706;28;20079;-59
2021/07/26 02:26:17;;;;;;;5.05;2.63;;;;;;;;;;10397996;28;20497;-60
2021/07/26 02:31:16;;;;;;;4.40;2.85;;;;;;;;;;10398970;28;20051;-60
2021/07/26 02:36:15;;;;;;;4.25;2.85;;;;;;;;;;10399268;28;20476;-60
2021/07/26 02:41:14;;;;;;;4.72;2.97;;;;;;;;;;10398916;28;20052;-60
2021/07/26 02:46:12;;;;;;;8.05;2.95;;;;;;;;;;10398936;28;20404;-59
2021/07/26 02:51:12;;;;;;;4.38;2.70;;;;;;;;;;10398330;28;20079;-60
2021/07/26 02:56:11;;;;;;;8.65;2.78;;;;;;;;;;10397929;28;20059;-60
2021/07/26 03:01:10;;;;;;;7.90;2.72;;;;;;;;;;10399553;28;20516;-60
2021/07/26 03:06:15;;;;;;;11.02;3.13;;;;;;;;;;10419634;28;20048;-59
2021/07/26 03:11:13;;;;;;;8.65;3.45;;;;;;;;;;10410698;27;20059;-59
2021/07/26 03:16:12;;;;;;;4.68;2.70;;;;;;;;;;10416131;27;20066;-60
2021/07/26 03:21:15;;;;;;;5.80;2.65;;;;;;;;;;10406174;27;20481;-58
2021/07/26 03:26:14;;;;;;;6.60;3.40;;;;;;;;;;10415293;27;20495;-60
2021/07/26 03:31:12;;;;;;;3.47;3.08;;;;;;;;;;10410958;27;20070;-58
2021/07/26 03:36:11;;;;;;;4.85;3.20;;;;;;;;;;10411789;27;20079;-59
2021/07/26 03:41:11;;;;;;;6.15;3.50;;;;;;;;;;10441751;27;20070;-60
2021/07/26 03:46:09;;;;;;;6.15;3.25;;;;;;;;;;10427340;27;20051;-60
2021/07/26 03:51:08;;;;;;;3.40;3.00;;;;;;;;;;10447302;27;20140;-60
2021/07/26 03:56:06;;;;;;;5.35;2.83;;;;;;;;;;10446334;27;20498;-60
2021/07/26 04:01:05;;;;;;;8.45;4.00;;;;;;;;;;10446797;27;20509;-60
2021/07/26 04:06:08;;;;;;;9.98;3.85;;;;;;;;;;10446742;27;20039;-59
2021/07/26 04:11:09;;;;;;;4.13;2.75;;;;;;;;;;10446594;27;20043;-60
2021/07/26 04:16:08;;;;;;;4.82;2.50;;;;;;;;;;10446246;27;20054;-60
2021/07/26 04:21:08;;;;;;;2.85;2.50;;;;;;;;;;10446011;27;20514;-59
2021/07/26 04:26:07;;;;;;;6.47;2.97;;;;;;;;;;10445533;27;20055;-59
2021/07/26 04:31:05;;;;;;;6.82;2.78;;;;;;;;;;10445685;27;20396;-60
2021/07/26 04:36:05;;;;;;;5.53;4.93;;;;;;;;;;10444761;27;20420;-60
2021/07/26 04:41:03;;;;;;;15.32;5.32;;;;;;;;;;10445179;27;20075;-60
2021/07/26 04:46:01;;;;;;;11.57;8.70;;;;;;;;;;10445082;27;20070;-60
2021/07/26 04:51:00;;;;;;;13.73;5.38;;;;;;;;;;10444278;27;20519;-60
2021/07/26 04:56:00;;;;;;;24.40;17.83;;;;;;;;;;10443796;27;20496;-60
2021/07/26 05:00:58;;;;;;;12.90;5.72;;;;;;;;;;10444300;27;20043;-60
2021/07/26 05:05:56;;;;;;;8.15;3.70;;;;;;;;;;10443224;27;20051;-60
2021/07/26 05:10:55;;;;;;;10.45;3.42;;;;;;;;;;10443986;27;20043;-60
2021/07/26 05:15:55;;;;;;;4.88;3.33;;;;;;;;;;10443637;27;20039;-59
2021/07/26 05:20:53;;;;;;;10.07;3.50;;;;;;;;;;10443380;27;20056;-61
2021/07/26 05:25:52;;;;;;;10.57;4.95;;;;;;;;;;10442997;27;20059;-59
2021/07/26 05:30:50;;;;;;;8.95;4.65;;;;;;;;;;10442686;27;20079;-60
2021/07/26 05:35:50;;;;;;;17.60;4.88;;;;;;;;;;10442297;27;20059;-60
2021/07/26 05:40:48;;;;;;;25.38;5.53;;;;;;;;;;10441945;27;20046;-59
2021/07/26 05:45:47;;;;;;;9.20;5.13;;;;;;;;;;10441422;27;20086;-60
2021/07/26 05:50:45;;;;;;;8.43;4.85;;;;;;;;;;10442569;27;20043;-59
2021/07/26 05:55:45;;;;;;;7.47;3.45;;;;;;;;;;10441899;27;20518;-59
2021/07/26 06:00:45;;;;;;;10.15;4.40;;;;;;;;;;10441773;27;20401;-59
2021/07/26 06:05:44;;;;;;;11.57;4.32;;;;;;;;;;10440344;27;20070;-59
2021/07/26 06:10:42;;;;;;;11.63;3.33;;;;;;;;;;10441099;27;20043;-59
2021/07/26 06:15:42;;;;;;;10.55;4.22;;;;;;;;;;10440214;27;20054;-59
2021/07/26 06:20:40;;;;;;;10.13;4.85;;;;;;;;;;10441100;27;20043;-60
2021/07/26 06:25:38;;;;;;;8.00;4.60;;;;;;;;;;10422547;27;20054;-60
2021/07/26 06:30:37;;;;;;;9.30;4.82;;;;;;;;;;10440853;27;20043;-60
2021/07/26 06:35:36;;;;;;;8.95;5.28;;;;;;;;;;10440025;27;20054;-60
2021/07/26 06:40:35;;;;;;;13.45;6.05;;;;;;;;;;10440523;27;20062;-61
2021/07/26 06:45:33;;;;;;;11.10;4.20;;;;;;;;;;10440742;27;20051;-62
2021/07/26 06:50:32;;;;;;;11.20;4.03;;;;;;;;;;10422892;27;20047;-59
2021/07/26 06:55:31;;;;;;;10.45;3.72;;;;;;;;;;10441509;28;20083;-58
2021/07/26 07:00:30;;;;;;;5.57;3.90;;;;;;;;;;10440514;28;20066;-59
2021/07/26 07:05:28;;;;;;;16.98;5.68;;;;;;;;;;10441332;28;20078;-60
2021/07/26 07:10:28;;;;;;;7.00;3.72;;;;;;;;;;10439818;28;20043;-59
2021/07/26 07:15:29;;;;;;;10.68;3.47;;;;;;;;;;10444821;27;20039;-59
2021/07/26 07:20:28;;;;;;;9.38;4.10;;;;;;;;;;10449547;27;20051;-59
2021/07/26 07:25:27;;;;;;;7.72;3.75;;;;;;;;;;10449215;27;20082;-60
2021/07/26 07:30:25;;;;;;;6.45;3.55;;;;;;;;;;10449029;27;20419;-59
2021/07/26 07:35:25;;;;;;;8.02;3.17;;;;;;;;;;10447443;27;20050;-59
2021/07/26 07:40:23;;;;;;;4.55;3.22;;;;;;;;;;10447930;27;20054;-59
2021/07/26 07:45:22;;;;;;;7.00;4.97;;;;;;;;;;10447629;27;20054;-59
2021/07/26 07:50:20;;;;;;;4.10;3.15;;;;;;;;;;10447839;27;20047;-59
2021/07/26 07:55:21;;;;;;;9.48;5.93;;;;;;;;;;10447266;27;20039;-58
2021/07/26 08:00:20;;;;;;;8.82;4.05;;;;;;;;;;10447996;27;20044;-59
2021/07/26 08:05:19;;;;;;;8.43;4.18;;;;;;;;;;10446646;27;20489;-59
2021/07/26 08:10:18;;;;;;;13.57;5.72;;;;;;;;;;10445262;27;20427;-59
2021/07/26 08:15:17;;;;;;;12.43;3.97;;;;;;;;;;10446421;27;20055;-60
2021/07/26 08:20:16;;;;;;;8.55;4.32;;;;;;;;;;10446487;27;20046;-59
2021/07/26 08:25:15;;;;;;;9.43;5.97;;;;;;;;;;10444561;27;20519;-58
2021/07/26 08:30:14;;;;;;;8.80;4.07;;;;;;;;;;10446823;27;20680;-59
2021/07/26 08:35:13;;;;;;;6.53;3.78;;;;;;;;;;10445220;27;20051;-58
2021/07/26 08:40:12;;;;;;;6.30;3.83;;;;;;;;;;10444987;27;20529;-59
2021/07/26 08:45:11;;;;;;;5.88;3.72;;;;;;;;;;10445664;27;20101;-59
2021/07/26 08:50:10;;;;;;;5.80;3.22;;;;;;;;;;10445907;27;20043;-59
2021/07/26 08:55:12;;;;;;;6.57;3.58;;;;;;;;;;10444855;27;20500;-60
2021/07/26 09:00:11;;;;;;;3.63;3.33;;;;;;;;;;10445694;27;20507;-60
2021/07/26 09:05:25;;;;;;;8.50;4.30;;;;;;;;;;10444521;27;20083;-59
2021/07/26 09:10:25;;;;;;;7.22;3.67;;;;;;;;;;10444924;27;20492;-59
2021/07/26 09:15:24;;;;;;;7.90;3.70;;;;;;;;;;10444507;27;20051;-59
2021/07/26 09:20:24;;;;;;;6.75;4.03;;;;;;;;;;10444233;27;20040;-59
2021/07/26 09:25:23;;;;;;;5.50;3.50;;;;;;;;;;10444481;27;20464;-59
2021/07/26 09:30:23;;;;;;;7.40;3.35;;;;;;;;;;10443889;27;20050;-59
2021/07/26 09:35:24;;;;;;;11.35;3.38;;;;;;;;;;10442627;27;20062;-60
2021/07/26 09:40:23;;;;;;;5.72;3.30;;;;;;;;;;10443707;27;20556;-60
2021/07/26 09:45:24;;;;;;;8.32;3.65;;;;;;;;;;10442873;27;20047;-60
2021/07/26 09:50:32;;;;;;;7.43;3.63;;;;;;;;;;10443810;27;20277;-60
2021/07/26 09:55:32;;;;;;;4.68;3.10;;;;;;;;;;10442225;27;20070;-60
2021/07/26 10:00:32;;;;;;;3.72;3.22;;;;;;;;;;10442160;27;20043;-60
2021/07/26 10:05:31;;;;;;;7.88;3.85;;;;;;;;;;10441969;27;20508;-60
2021/07/26 10:10:30;;;;;;;9.57;3.55;;;;;;;;;;10441797;27;20141;-60
2021/07/26 10:15:29;;;;;;;3.92;3.45;;;;;;;;;;10442758;27;20050;-61
2021/07/26 10:20:30;;;;;;;5.65;3.17;;;;;;;;;;10440759;27;20124;-61
2021/07/26 10:25:31;;;;;;;4.85;2.97;;;;;;;;;;10441854;27;20518;-60
2021/07/26 10:30:34;;;;;;;5.70;3.90;;;;;;;;;;10441230;27;20050;-61
2021/07/26 10:35:41;;;;;;;7.65;2.75;;;;;;;;;;10440219;27;20415;-60
2021/07/26 10:40:42;;;;;;;4.70;2.95;;;;;;;;;;10440791;27;20051;-60
2021/07/26 10:46:07;;;;;;;7.68;2.92;;;;;;;;;;10440498;27;20071;-60
2021/07/26 10:51:24;;;;;;;6.88;2.95;;;;;;;;;;10439056;27;20046;-60
2021/07/26 10:56:24;;;;;;;7.72;2.90;;;;;;;;;;10439815;28;20054;-60
2021/07/26 11:01:34;;;;;;;4.38;2.65;;;;;;;;;;10440553;28;20050;-60
2021/07/26 11:06:51;;;;;;;3.70;2.92;;;;;;;;;;10439783;28;20086;-60
2021/07/26 11:11:52;;;;;;;6.68;2.25;;;;;;;;;;10440002;28;20043;-60
2021/07/26 11:17:02;;;;;;;6.10;3.35;;;;;;;;;;10440393;28;20036;-60
2021/07/26 11:22:00;;;;;;;5.22;3.00;;;;;;;;;;10440370;28;20055;-60
2021/07/26 11:27:00;;;;;;;6.40;3.17;;;;;;;;;;10439725;28;20078;-60
2021/07/26 11:31:59;;;;;;;5.70;3.17;;;;;;;;;;10439821;28;20052;-60
2021/07/26 11:37:04;;;;;;;8.40;3.50;;;;;;;;;;10439603;28;20488;-61
2021/07/26 11:42:04;;;;;;;6.55;2.65;;;;;;;;;;10439795;28;20051;-60
2021/07/26 11:47:02;;;;;;;10.23;3.05;;;;;;;;;;10439259;28;20114;-60
2021/07/26 11:52:20;;;;;;;6.05;3.40;;;;;;;;;;10439417;28;20066;-60
2021/07/26 11:57:21;;;;;;;8.30;3.40;;;;;;;;;;10439195;28;20058;-60
2021/07/26 12:02:24;;;;;;;9.43;3.30;;;;;;;;;;10445307;27;20403;-60
2021/07/26 12:07:40;;;;;;;7.60;2.88;;;;;;;;;;10446638;27;20530;-60
2021/07/26 12:12:40;;;;;;;5.35;3.15;;;;;;;;;;10446806;27;20043;-60
2021/07/26 12:17:38;;;;;;;4.20;2.47;;;;;;;;;;10446044;27;20047;-60
2021/07/26 12:22:41;;;;;;;3.33;3.03;;;;;;;;;;10427483;27;20043;-60
2021/07/26 12:27:56;;;;;;;4.95;2.55;;;;;;;;;;10445584;27;20085;-60
2021/07/26 12:32:54;;;;;;;3.72;3.30;;;;;;;;;;10445750;27;20182;-60
2021/07/26 12:38:23;;;;;;;8.02;3.05;;;;;;;;;;10445206;27;20050;-60
2021/07/26 12:43:27;;;;;;;5.78;2.80;;;;;;;;;;10316350;27;20082;-60
2021/07/26 12:48:26;;;;;;;4.82;3.08;;;;;;;;;;10445199;27;20093;-60
2021/07/26 12:53:25;;;;;;;6.45;3.17;;;;;;;;;;10444320;27;20047;-61
2021/07/26 12:58:26;;;;;;;6.60;2.35;;;;;;;;;;10445320;27;20136;-60
2021/07/26 13:03:24;;;;;;;8.10;2.83;;;;;;;;;;10445165;27;20054;-60
2021/07/26 13:08:22;;;;;;;4.05;3.15;;;;;;;;;;10444496;27;20047;-60
2021/07/26 13:13:21;;;;;;;5.10;4.32;;;;;;;;;;10443250;27;20039;-60
2021/07/26 13:18:21;;;;;;;4.70;2.58;;;;;;;;;;10443937;27;20471;-60
2021/07/26 13:23:19;;;;;;;3.72;2.97;;;;;;;;;;10443190;27;20086;-60
2021/07/26 13:28:17;;;;;;;3.50;3.20;;;;;;;;;;10443054;27;20515;-60
2021/07/26 13:33:16;;;;;;;4.22;3.47;;;;;;;;;;10443285;27;20059;-60
2021/07/26 13:38:16;;;;;;;5.78;3.38;;;;;;;;;;10443381;27;20058;-60
2021/07/26 13:43:14;;;;;;;4.95;4.45;;;;;;;;;;10443264;27;20420;-61
2021/07/26 13:48:13;;;;;;;11.93;5.57;;;;;;;;;;10442678;27;20081;-60
2021/07/26 13:53:10;;;;;;;3.95;3.25;;;;;;;;;;10442738;27;20506;-60
2021/07/26 13:58:09;;;;;;;6.68;3.88;;;;;;;;;;10442220;27;20042;-60
2021/07/26 14:03:08;;;;;;;4.60;2.92;;;;;;;;;;10441744;27;20185;-60
2021/07/26 14:08:07;;;;;;;5.05;4.55;;;;;;;;;;10441564;27;20085;-60
2021/07/26 14:13:05;;;;;;;8.35;5.70;;;;;;;;;;10442192;27;20039;-61
2021/07/26 14:18:05;;;;;;;8.60;3.50;;;;;;;;;;10441410;27;20050;-60
2021/07/26 14:23:03;;;;;;;3.78;2.78;;;;;;;;;;10440852;27;20043;-60
2021/07/26 14:28:01;;;;;;;4.32;3.90;;;;;;;;;;10441194;27;20075;-60
2021/07/26 14:33:00;;;;;;;5.65;3.15;;;;;;;;;;10417810;27;20079;-61
2021/07/26 14:37:59;;;;;;;5.07;4.15;;;;;;;;;;10422100;27;20047;-61
2021/07/26 14:42:58;;;;;;;6.40;3.75;;;;;;;;;;10414676;27;20570;-60
2021/07/26 14:47:56;;;;;;;4.85;3.35;;;;;;;;;;10420645;27;20113;-60
2021/07/26 14:52:54;;;;;;;5.03;2.92;;;;;;;;;;10405043;27;20059;-60
2021/07/26 14:57:54;;;;;;;5.72;2.55;;;;;;;;;;10427838;27;20437;-60
2021/07/26 15:02:52;;;;;;;4.25;3.22;;;;;;;;;;10422958;27;20067;-60
2021/07/26 15:07:51;;;;;;;8.10;5.82;;;;;;;;;;10419059;27;20723;-61
2021/07/26 15:12:59;;;;;;;6.80;3.78;;;;;;;;;;10428943;27;20079;-61
2021/07/26 15:17:58;;;;;;;6.18;3.78;;;;;;;;;;10435213;28;20538;-60
2021/07/26 15:22:56;;;;;;;4.95;3.47;;;;;;;;;;10433579;28;20087;-61
2021/07/26 15:27:54;;;;;;;6.40;2.90;;;;;;;;;;10428273;27;20071;-60
2021/07/26 15:32:54;;;;;;;3.75;3.08;;;;;;;;;;10419897;27;20074;-59
2021/07/26 15:37:53;;;;;;;5.18;3.13;;;;;;;;;;10440240;27;20043;-59
2021/07/26 15:42:51;;;;;;;3.22;1.90;;;;;;;;;;10444748;27;20071;-60
2021/07/26 15:47:50;;;;;;;5.32;2.20;;;;;;;;;;10444281;27;20074;-60
2021/07/26 15:52:49;;;;;;;4.95;2.75;;;;;;;;;;10445485;27;20097;-60
2021/07/26 15:57:48;;;;;;;2.75;2.42;;;;;;;;;;10443966;27;20498;-60
2021/07/26 16:02:46;;;;;;;5.63;2.72;;;;;;;;;;10430863;27;20063;-60
2021/07/26 16:07:44;;;;;;;11.55;2.90;;;;;;;;;;10421626;27;20082;-61
2021/07/26 16:12:45;;;;;;;8.30;2.92;;;;;;;;;;10403871;27;20056;-61
2021/07/26 16:17:43;;;;;;;4.82;2.63;;;;;;;;;;10431859;27;20054;-60
2021/07/26 16:22:42;;;;;;;7.38;2.50;;;;;;;;;;10418278;27;20047;-60
2021/07/26 16:27:40;;;;;;;3.17;2.30;;;;;;;;;;10419719;27;20094;-60
2021/07/26 16:32:41;;;;;;;6.65;2.75;;;;;;;;;;10439130;27;20424;-60
2021/07/26 16:37:41;;;;;;;6.43;2.95;;;;;;;;;;10424132;27;20052;-59
2021/07/26 16:42:39;;;;;;;7.63;3.42;;;;;;;;;;10416241;27;20412;-61
2021/07/26 16:47:42;;;;;;;9.25;3.35;;;;;;;;;;10431442;27;20071;-61
2021/07/26 16:52:43;;;;;;;2.80;2.33;;;;;;;;;;10438320;27;20039;-61
2021/07/26 16:57:42;;;;;;;8.52;3.10;;;;;;;;;;10445076;27;20039;-61
2021/07/26 17:02:41;;;;;;;6.38;4.80;;;;;;;;;;10444500;27;20514;-61
2021/07/26 17:07:40;;;;;;;5.30;3.65;;;;;;;;;;10431587;27;20081;-61
2021/07/26 17:12:38;;;;;;;6.22;4.28;;;;;;;;;;10421973;27;20063;-61
2021/07/26 17:17:37;;;;;;;3.17;2.75;;;;;;;;;;10422921;27;20507;-61
2021/07/26 17:22:38;;;;;;;11.25;4.93;;;;;;;;;;10414187;27;20063;-61
2021/07/26 17:27:37;;;;;;;11.50;7.60;;;;;;;;;;10443456;27;20074;-61
2021/07/26 17:32:38;;;;;;;10.27;6.95;;;;;;;;;;10435680;27;20086;-60
2021/07/26 17:37:38;;;;;;;14.73;5.15;;;;;;;;;;10413033;27;20074;-61
2021/07/26 17:42:36;;;;;;;6.72;3.65;;;;;;;;;;10416991;27;20065;-60
2021/07/26 17:47:34;;;;;;;8.70;2.85;;;;;;;;;;10417134;27;20079;-61
2021/07/26 17:52:34;;;;;;;4.88;2.67;;;;;;;;;;10413957;27;20058;-61
2021/07/26 17:57:33;;;;;;;7.32;3.65;;;;;;;;;;10424243;27;20078;-61
2021/07/26 18:02:32;;;;;;;5.00;3.58;;;;;;;;;;10410745;27;20083;-61
2021/07/26 18:07:35;;;;;;;8.13;3.05;;;;;;;;;;10403483;27;20550;-61
2021/07/26 18:12:39;;;;;;;4.18;2.88;;;;;;;;;;10421413;27;20043;-61
2021/07/26 18:17:57;;;;;;;4.43;3.33;;;;;;;;;;10420114;27;20507;-61
2021/07/26 18:22:55;;;;;;;7.15;2.90;;;;;;;;;;10423340;27;20435;-60
2021/07/26 18:27:55;;;;;;;5.85;3.08;;;;;;;;;;10421319;27;20078;-61
2021/07/26 18:32:54;;;;;;;7.65;3.25;;;;;;;;;;10441275;27;20097;-60
2021/07/26 18:37:52;;;;;;;3.42;2.75;;;;;;;;;;10424688;27;20079;-60
2021/07/26 18:42:51;;;;;;;4.72;2.30;;;;;;;;;;10415362;27;20078;-60
2021/07/26 18:47:50;;;;;;;5.28;2.47;;;;;;;;;;10441523;27;20079;-60
2021/07/26 18:52:49;;;;;;;8.55;5.00;;;;;;;;;;10440609;27;20447;-60
2021/07/26 18:57:47;;;;;;;4.85;2.83;;;;;;;;;;10437853;27;20070;-60
2021/07/26 19:02:45;;;;;;;2.28;1.95;;;;;;;;;;10398796;28;20040;-60
2021/07/26 19:07:45;;;;;;;9.50;3.00;;;;;;;;;;10411198;27;20078;-60
2021/07/26 19:12:45;;;;;;;2.58;2.10;;;;;;;;;;10428845;27;20039;-59
2021/07/26 19:17:43;;;;;;;2.83;2.00;;;;;;;;;;10437564;27;20078;-60
2021/07/26 19:22:41;;;;;;;2.50;1.60;;;;;;;;;;10425349;27;20388;-60
2021/07/26 19:27:41;;;;;;;3.75;2.13;;;;;;;;;;10406723;28;20071;-59
2021/07/26 19:32:39;;;;;;;3.15;2.58;;;;;;;;;;10417283;27;20051;-60
2021/07/26 19:37:38;;;;;;;6.72;2.67;;;;;;;;;;10406572;28;20412;-59
2021/07/26 19:42:39;;;;;;;4.10;2.97;;;;;;;;;;10406326;28;20047;-60
2021/07/26 19:47:39;;;;;;;7.40;3.10;;;;;;;;;;10406060;28;20463;-59
2021/07/26 19:52:37;;;;;;;6.00;2.15;;;;;;;;;;10405815;28;20039;-60
2021/07/26 19:57:35;;;;;;;6.30;2.90;;;;;;;;;;10404743;28;20052;-61
2021/07/26 20:02:34;;;;;;;7.80;3.13;;;;;;;;;;10386473;28;20047;-59
2021/07/26 20:07:33;;;;;;;5.40;2.38;;;;;;;;;;10405300;28;20079;-58
2021/07/26 20:12:32;;;;;;;3.03;2.50;;;;;;;;;;10404655;28;20056;-60
2021/07/26 20:17:45;;;;;;;7.82;3.28;;;;;;;;;;10404670;28;20056;-60
2021/07/26 20:22:45;;;;;;;4.60;2.90;;;;;;;;;;10414593;27;20521;-59
2021/07/26 20:27:44;;;;;;;4.50;2.83;;;;;;;;;;10405065;27;20052;-59
2021/07/26 20:32:42;;;;;;;3.45;2.45;;;;;;;;;;10403393;28;20055;-60
2021/07/26 20:37:41;;;;;;;3.03;2.67;;;;;;;;;;10403158;28;20082;-60
2021/07/26 20:42:41;;;;;;;5.35;2.70;;;;;;;;;;10403718;28;20048;-60
2021/07/26 20:47:40;;;;;;;4.20;2.20;;;;;;;;;;10403751;28;20500;-59
2021/07/26 20:52:38;;;;;;;3.40;2.60;;;;;;;;;;10418249;27;20043;-60
2021/07/26 20:57:37;;;;;;;3.05;2.75;;;;;;;;;;10433570;27;20070;-60
2021/07/26 21:02:57;;;;;;;9.07;2.90;;;;;;;;;;10414715;27;20050;-60
2021/07/26 21:07:57;;;;;;;4.05;2.63;;;;;;;;;;10414769;27;20078;-60
2021/07/26 21:12:56;;;;;;;5.82;2.40;;;;;;;;;;10402196;28;20051;-59
2021/07/26 21:17:55;;;;;;;6.75;2.70;;;;;;;;;;10402756;28;20047;-60
2021/07/26 21:22:54;;;;;;;2.00;1.70;;;;;;;;;;10401814;28;20495;-60
2021/07/26 21:27:53;;;;;;;5.70;2.50;;;;;;;;;;10401927;28;20467;-59
2021/07/26 21:32:51;;;;;;;2.58;2.38;;;;;;;;;;10401082;28;20047;-60
2021/07/26 21:37:50;;;;;;;3.80;2.00;;;;;;;;;;10402093;28;20047;-59
2021/07/26 21:42:49;;;;;;;6.55;2.55;;;;;;;;;;10401179;27;20515;-60
2021/07/26 21:47:50;;;;;;;5.80;2.60;;;;;;;;;;10413097;27;20071;-60
2021/07/26 21:52:49;;;;;;;4.95;2.70;;;;;;;;;;10400984;28;20060;-60
2021/07/26 21:57:47;;;;;;;3.65;2.47;;;;;;;;;;10400285;28;20047;-60
2021/07/26 22:02:47;;;;;;;4.55;2.30;;;;;;;;;;10400627;28;20040;-59
2021/07/26 22:07:45;;;;;;;6.85;2.78;;;;;;;;;;10400370;28;20079;-60
2021/07/26 22:12:43;;;;;;;6.10;2.70;;;;;;;;;;10400549;28;20040;-60
2021/07/26 22:17:41;;;;;;;7.50;2.35;;;;;;;;;;10399870;28;20431;-60
2021/07/26 22:22:41;;;;;;;3.80;2.50;;;;;;;;;;10399672;28;20047;-60
2021/07/26 22:27:39;;;;;;;8.35;3.42;;;;;;;;;;10399774;28;20082;-60
2021/07/26 22:32:38;;;;;;;5.80;3.00;;;;;;;;;;10398460;28;20090;-60
2021/07/26 22:37:38;;;;;;;3.65;2.50;;;;;;;;;;10399756;28;20046;-59
2021/07/26 22:42:38;;;;;;;7.47;2.72;;;;;;;;;;10399190;28;20047;-57
2021/07/26 22:47:36;;;;;;;4.95;3.35;;;;;;;;;;10398620;28;20491;-59
2021/07/26 22:52:35;;;;;;;3.78;2.40;;;;;;;;;;10398144;28;20492;-60
2021/07/26 22:57:33;;;;;;;5.25;3.28;;;;;;;;;;10398622;28;20048;-59
2021/07/26 23:02:33;;;;;;;5.03;2.95;;;;;;;;;;10398971;28;20086;-58
2021/07/26 23:07:31;;;;;;;7.65;2.80;;;;;;;;;;10399005;28;20040;-59
2021/07/26 23:12:30;;;;;;;4.40;2.83;;;;;;;;;;10380343;28;20047;-60
2021/07/26 23:17:29;;;;;;;6.93;3.03;;;;;;;;;;10398801;28;20145;-59
2021/07/26 23:22:28;;;;;;;9.35;3.25;;;;;;;;;;10380239;28;20047;-60
2021/07/26 23:27:27;;;;;;;5.80;3.22;;;;;;;;;;10398160;28;20047;-60
2021/07/26 23:32:26;;;;;;;3.92;2.95;;;;;;;;;;10397007;28;20086;-60
2021/07/26 23:37:24;;;;;;;6.30;3.15;;;;;;;;;;10398507;28;20484;-59
2021/07/26 23:42:24;;;;;;;4.78;2.55;;;;;;;;;;10379033;28;20050;-59
2021/07/26 23:47:23;;;;;;;5.68;3.38;;;;;;;;;;10398123;28;20488;-60
2021/07/26 23:52:22;;;;;;;4.35;3.00;;;;;;;;;;10398040;28;20082;-59
2021/07/26 23:57:20;;;;;;;4.70;2.85;;;;;;;;;;10402408;28;20067;-60
